createdAt,value
2023-01-02T00:01:35.183Z,100.00
2023-01-02T00:04:03.527Z,100.00
2023-01-02T00:06:35.885Z,100.00
2023-01-02T00:09:05.197Z,100.00
2023-01-02T00:11:34.927Z,100.00
2023-01-02T00:14:03.333Z,100.00
2023-01-02T00:16:31.781Z,100.00
2023-01-02T00:19:00.189Z,100.00
2023-01-02T00:21:28.556Z,100.00
2023-01-02T00:23:56.873Z,100.00
2023-01-02T00:26:25.161Z,100.00
2023-01-02T00:28:56.352Z,100.00
2023-01-02T00:31:24.801Z,100.00
2023-01-02T00:33:53.092Z,100.00
2023-01-02T00:36:22.153Z,100.00
2023-01-02T00:38:50.422Z,100.00
2023-01-02T00:41:18.940Z,100.00
2023-01-02T00:43:47.445Z,100.00
2023-01-02T00:46:18.739Z,100.00
2023-01-02T00:48:47.151Z,100.00
2023-01-02T00:51:15.427Z,100.00
2023-01-02T00:53:43.796Z,100.00
2023-01-02T00:56:12.601Z,100.00
2023-01-02T00:58:40.994Z,100.00
2023-01-02T01:01:09.332Z,100.00
2023-01-02T01:03:39.233Z,100.00
2023-01-02T01:06:08.877Z,100.00
2023-01-02T01:08:37.445Z,100.00
2023-01-02T01:11:10.382Z,100.00
2023-01-02T01:13:39.068Z,100.00
2023-01-02T01:16:09.549Z,100.00
2023-01-02T01:18:40.031Z,100.00
2023-01-02T01:21:10.055Z,100.00
2023-01-02T01:23:38.795Z,100.00
2023-01-02T01:26:09.419Z,100.00
2023-01-02T01:28:38.473Z,100.00
2023-01-02T01:31:08.727Z,100.00
2023-01-02T01:33:39.563Z,100.00
2023-01-02T01:36:10.951Z,100.00
2023-01-02T01:38:39.531Z,100.00
2023-01-02T01:41:08.532Z,100.00
2023-01-02T01:43:39.837Z,100.00
2023-01-02T01:46:12.300Z,100.00
2023-01-02T01:48:42.258Z,100.00
2023-01-02T01:51:10.916Z,100.00
2023-01-02T01:53:39.706Z,100.00
2023-01-02T01:56:09.833Z,100.00
2023-01-02T01:58:43.132Z,100.00
2023-01-02T02:01:13.993Z,100.00
2023-01-02T02:03:47.562Z,100.00
2023-01-02T02:06:17.472Z,100.00
2023-01-02T02:08:51.365Z,100.00
2023-01-02T02:11:20.200Z,100.00
2023-01-02T02:13:49.784Z,100.00
2023-01-02T02:16:29.910Z,100.00
2023-01-02T02:19:27.591Z,100.00
2023-01-02T02:22:17.681Z,100.00
2023-01-02T02:25:26.839Z,100.00
2023-01-02T02:28:39.127Z,100.00
2023-01-02T02:31:14.599Z,100.00
2023-01-02T02:33:49.733Z,100.00
2023-01-02T02:36:29.502Z,100.00
2023-01-02T02:39:09.734Z,100.00
2023-01-02T02:41:49.468Z,100.00
2023-01-02T02:44:32.022Z,100.00
2023-01-02T02:47:07.562Z,100.00
2023-01-02T02:49:49.594Z,100.00
2023-01-02T02:52:24.932Z,100.00
2023-01-02T02:55:01.307Z,100.00
2023-01-02T02:57:31.751Z,100.00
2023-01-02T03:00:00.241Z,100.00
2023-01-02T03:02:30.100Z,100.00
2023-01-02T03:05:03.461Z,100.00
2023-01-02T03:07:40.832Z,100.00
2023-01-02T03:10:23.104Z,100.00
2023-01-02T03:13:02.133Z,100.00
2023-01-02T03:15:37.243Z,100.00
2023-01-02T03:18:18.843Z,100.00
2023-01-02T03:20:59.971Z,100.00
2023-01-02T03:23:31.932Z,100.00
2023-01-02T03:26:00.624Z,100.00
2023-01-02T03:28:29.004Z,100.00
2023-01-02T03:31:01.981Z,100.00
2023-01-02T03:33:37.280Z,100.00
2023-01-02T03:36:11.639Z,100.00
2023-01-02T03:38:45.398Z,100.00
2023-01-02T03:41:20.793Z,100.00
2023-01-02T03:43:57.088Z,100.00
2023-01-02T03:46:34.906Z,100.00
2023-01-02T03:49:09.543Z,100.00
2023-01-02T03:51:37.969Z,100.00
2023-01-02T03:54:07.403Z,100.00
2023-01-02T03:56:45.425Z,100.00
2023-01-02T03:59:19.432Z,100.00
2023-01-02T04:01:55.734Z,100.00
2023-01-02T04:04:36.617Z,100.00
2023-01-02T04:07:05.912Z,100.00
2023-01-02T04:09:36.407Z,100.00
2023-01-02T04:12:12.015Z,100.00
2023-01-02T04:14:43.889Z,100.00
2023-01-02T04:17:15.759Z,100.00
2023-01-02T04:19:50.859Z,100.00
2023-01-02T04:22:25.699Z,100.00
2023-01-02T04:24:59.112Z,100.00
2023-01-02T04:27:33.633Z,100.00
2023-01-02T04:30:02.217Z,100.00
2023-01-02T04:32:35.838Z,100.00
2023-01-02T04:35:11.761Z,100.00
2023-01-02T04:37:42.623Z,100.00
2023-01-02T04:40:18.211Z,100.00
2023-01-02T04:42:46.997Z,100.00
2023-01-02T04:45:16.473Z,100.00
2023-01-02T04:47:45.352Z,100.00
2023-01-02T04:50:15.217Z,100.00
2023-01-02T04:52:43.933Z,100.00
2023-01-02T04:55:12.276Z,100.00
2023-01-02T04:57:40.886Z,100.00
2023-01-02T05:00:11.496Z,100.00
2023-01-02T05:02:41.123Z,100.00
2023-01-02T05:05:10.557Z,100.00
2023-01-02T05:07:40.864Z,100.00
2023-01-02T05:10:10.476Z,100.00
2023-01-02T05:12:40.093Z,100.00
2023-01-02T05:15:11.571Z,100.00
2023-01-02T05:17:41.675Z,100.00
2023-01-02T05:20:13.331Z,100.00
2023-01-02T05:23:01.983Z,100.00
2023-01-02T05:25:33.962Z,100.00
2023-01-02T05:28:03.592Z,100.00
2023-01-02T05:30:31.990Z,100.00
2023-01-02T05:33:00.315Z,100.00
2023-01-02T05:35:32.505Z,100.00
2023-01-02T05:38:02.947Z,100.00
2023-01-02T05:40:31.245Z,100.00
2023-01-02T05:43:00.108Z,100.00
2023-01-02T05:45:28.446Z,100.00
2023-01-02T05:47:56.984Z,100.00
2023-01-02T05:50:25.420Z,100.00
2023-01-02T05:52:53.785Z,100.00
2023-01-02T05:55:23.571Z,100.00
2023-01-02T05:57:58.566Z,100.00
2023-01-02T06:00:26.944Z,100.00
2023-01-02T06:02:55.349Z,100.00
2023-01-02T06:05:23.788Z,100.00
2023-01-02T06:07:52.129Z,100.00
2023-01-02T06:10:20.549Z,100.00
2023-01-02T06:12:50.257Z,100.00
2023-01-02T06:15:18.621Z,100.00
2023-01-02T06:17:46.911Z,100.00
2023-01-02T06:20:16.112Z,100.00
2023-01-02T06:22:45.015Z,100.00
2023-01-02T06:25:13.431Z,100.00
2023-01-02T06:27:41.743Z,100.00
2023-01-02T06:30:12.511Z,100.00
2023-01-02T06:32:40.690Z,100.00
2023-01-02T06:35:09.719Z,100.00
2023-01-02T06:37:38.028Z,100.00
2023-01-02T06:40:07.847Z,100.00
2023-01-02T06:42:36.208Z,100.00
2023-01-02T06:45:05.240Z,100.00
2023-01-02T06:47:34.955Z,100.00
2023-01-02T06:50:03.259Z,100.00
2023-01-02T06:52:31.609Z,100.00
2023-01-02T06:55:00.099Z,100.00
2023-01-02T06:57:31.513Z,100.00
2023-01-02T06:59:59.872Z,100.00
2023-01-02T07:02:28.336Z,100.00
2023-01-02T07:04:58.131Z,100.00
2023-01-02T07:07:26.486Z,100.00
2023-01-02T07:09:54.784Z,100.00
2023-01-02T07:12:23.135Z,100.00
2023-01-02T07:14:51.428Z,100.00
2023-01-02T07:17:19.801Z,100.00
2023-01-02T07:19:53.212Z,100.00
2023-01-02T07:22:24.228Z,100.00
2023-01-02T07:24:52.650Z,100.00
2023-01-02T07:27:21.048Z,100.00
2023-01-02T07:29:49.389Z,100.00
2023-01-02T07:32:21.011Z,100.00
2023-01-02T07:34:53.853Z,99.75
2023-01-02T07:37:23.491Z,99.41
2023-01-02T07:39:51.836Z,99.38
2023-01-02T07:42:20.160Z,99.39
2023-01-02T07:44:48.537Z,99.21
2023-01-02T07:47:16.865Z,99.60
2023-01-02T07:49:45.233Z,99.17
2023-01-02T07:52:13.658Z,99.07
2023-01-02T07:54:43.442Z,99.08
2023-01-02T07:57:11.815Z,98.55
2023-01-02T07:59:40.198Z,98.30
2023-01-02T08:02:11.451Z,97.98
2023-01-02T08:04:40.021Z,97.90
2023-01-02T08:07:08.341Z,97.67
2023-01-02T08:09:36.942Z,96.97
2023-01-02T08:12:07.211Z,96.47
2023-01-02T08:14:35.567Z,95.90
2023-01-02T08:17:04.075Z,95.52
2023-01-02T08:19:32.539Z,95.41
2023-01-02T08:22:00.889Z,95.29
2023-01-02T08:24:29.319Z,94.76
2023-01-02T08:26:57.682Z,94.45
2023-01-02T08:29:27.405Z,94.23
2023-01-02T08:31:55.739Z,93.71
2023-01-02T08:34:24.088Z,93.88
2023-01-02T08:36:53.452Z,93.16
2023-01-02T08:39:21.786Z,93.34
2023-01-02T08:41:50.071Z,92.97
2023-01-02T08:44:18.700Z,92.68
2023-01-02T08:46:48.450Z,92.86
2023-01-02T08:49:17.116Z,92.65
2023-01-02T08:51:45.673Z,93.01
2023-01-02T08:54:14.031Z,92.37
2023-01-02T08:56:42.779Z,92.76
2023-01-02T08:59:13.590Z,92.75
2023-01-02T09:01:42.731Z,92.84
2023-01-02T09:04:13.479Z,92.68
2023-01-02T09:06:43.404Z,92.76
2023-01-02T09:09:13.267Z,92.76
2023-01-02T09:11:47.136Z,93.16
2023-01-02T09:14:15.582Z,92.75
2023-01-02T09:16:43.970Z,92.67
2023-01-02T09:19:13.982Z,92.47
2023-01-02T09:21:42.381Z,92.66
2023-01-02T09:24:11.291Z,92.08
2023-01-02T09:26:41.867Z,92.33
2023-01-02T09:29:10.613Z,92.07
2023-01-02T09:31:39.709Z,92.38
2023-01-02T09:34:09.038Z,92.12
2023-01-02T09:36:38.951Z,92.04
2023-01-02T09:39:07.654Z,91.52
2023-01-02T09:41:38.953Z,91.92
2023-01-02T09:44:16.011Z,91.94
2023-01-02T09:46:51.090Z,92.02
2023-01-02T09:49:23.959Z,91.81
2023-01-02T09:51:53.956Z,92.02
2023-01-02T09:54:27.525Z,91.87
2023-01-02T09:57:20.813Z,92.40
2023-01-02T09:59:55.257Z,91.88
2023-01-02T10:02:43.981Z,91.62
2023-01-02T10:05:59.174Z,90.97
2023-01-02T10:08:39.127Z,91.16
2023-01-02T10:11:22.758Z,91.18
2023-01-02T10:16:49.910Z,91.18
2023-01-02T10:19:23.866Z,91.00
2023-01-02T10:21:59.972Z,91.12
2023-01-02T10:24:41.740Z,90.24
2023-01-02T10:27:18.708Z,90.47
2023-01-02T10:29:54.532Z,90.37
2023-01-02T10:32:26.248Z,90.56
2023-01-02T10:35:11.024Z,90.75
2023-01-02T10:37:39.452Z,90.53
2023-01-02T10:40:10.349Z,91.26
2023-01-02T10:42:38.744Z,90.92
2023-01-02T10:45:15.202Z,90.12
2023-01-02T10:47:44.718Z,87.74
2023-01-02T10:50:20.796Z,86.60
2023-01-02T10:52:52.117Z,86.44
2023-01-02T10:55:38.784Z,85.02
2023-01-02T10:58:21.861Z,84.39
2023-01-02T11:00:51.724Z,83.71
2023-01-02T11:03:26.067Z,84.18
2023-01-02T11:05:59.413Z,84.44
2023-01-02T11:08:40.605Z,84.40
2023-01-02T11:11:19.227Z,84.63
2023-01-02T11:13:54.026Z,85.03
2023-01-02T11:16:25.804Z,85.40
2023-01-02T11:18:56.826Z,85.91
2023-01-02T11:21:29.608Z,85.91
2023-01-02T11:24:03.808Z,86.74
2023-01-02T11:26:36.065Z,86.78
2023-01-02T11:29:08.953Z,87.41
2023-01-02T11:31:43.564Z,87.44
2023-01-02T11:34:21.588Z,87.43
2023-01-02T11:37:05.419Z,87.61
2023-01-02T11:39:35.681Z,87.87
2023-01-02T11:42:35.768Z,88.71
2023-01-02T11:45:09.313Z,89.06
2023-01-02T11:47:43.423Z,89.43
2023-01-02T11:50:16.688Z,89.83
2023-01-02T11:52:52.873Z,90.00
2023-01-02T11:55:39.141Z,90.46
2023-01-02T11:58:19.384Z,90.92
2023-01-02T12:00:54.031Z,91.95
2023-01-02T12:03:25.379Z,92.88
2023-01-02T12:06:15.563Z,93.43
2023-01-02T12:09:05.357Z,93.87
2023-01-02T12:11:57.206Z,95.05
2023-01-02T12:14:52.456Z,95.13
2023-01-02T12:17:33.682Z,95.60
2023-01-02T12:20:21.597Z,95.82
2023-01-02T12:23:12.406Z,95.99
2023-01-02T12:25:55.367Z,95.39
2023-01-02T12:28:56.952Z,96.11
2023-01-02T12:31:44.117Z,96.20
2023-01-02T12:34:26.422Z,96.52
2023-01-02T12:37:08.967Z,96.57
2023-01-02T12:39:58.165Z,96.91
2023-01-02T12:42:47.593Z,97.07
2023-01-02T12:45:26.783Z,97.43
2023-01-02T12:48:25.424Z,96.97
2023-01-02T12:51:18.519Z,96.71
2023-01-02T12:54:20.044Z,96.57
2023-01-02T12:57:00.412Z,95.99
2023-01-02T13:00:01.003Z,95.46
2023-01-02T13:02:50.666Z,95.08
2023-01-02T13:05:26.256Z,94.88
2023-01-02T13:07:58.115Z,94.71
2023-01-02T13:10:29.051Z,95.03
2023-01-02T13:13:00.393Z,95.02
2023-01-02T13:15:33.419Z,94.95
2023-01-02T13:18:08.396Z,94.91
2023-01-02T13:20:46.825Z,94.63
2023-01-02T13:23:33.067Z,94.48
2023-01-02T13:26:05.230Z,94.61
2023-01-02T13:28:33.914Z,94.28
2023-01-02T13:33:56.026Z,93.60
2023-01-02T13:36:29.072Z,93.07
2023-01-02T13:39:01.883Z,92.70
2023-01-02T13:41:58.308Z,92.64
2023-01-02T13:44:34.608Z,91.27
2023-01-02T13:47:19.169Z,90.92
2023-01-02T13:49:58.769Z,90.40
2023-01-02T13:52:28.563Z,90.13
2023-01-02T13:55:32.415Z,89.74
2023-01-02T13:58:47.298Z,89.96
2023-01-02T14:02:07.626Z,90.40
2023-01-02T14:04:41.584Z,90.38
2023-01-02T14:07:50.473Z,90.69
2023-01-02T14:10:42.292Z,90.69
2023-01-02T14:13:20.267Z,91.28
2023-01-02T14:16:54.658Z,91.15
2023-01-02T14:19:25.870Z,91.32
2023-01-02T14:22:11.100Z,90.92
2023-01-02T14:24:43.350Z,91.48
2023-01-02T14:27:25.346Z,91.61
2023-01-02T14:29:56.404Z,92.03
2023-01-02T14:32:36.135Z,92.07
2023-01-02T14:35:08.831Z,92.34
2023-01-02T14:37:41.697Z,92.23
2023-01-02T14:40:33.996Z,92.48
2023-01-02T14:43:22.828Z,92.45
2023-01-02T14:45:54.530Z,92.56
2023-01-02T14:48:31.750Z,92.27
2023-01-02T14:51:07.924Z,92.06
2023-01-02T14:53:51.089Z,91.75
2023-01-02T14:56:25.168Z,92.15
2023-01-02T14:58:55.379Z,91.95
2023-01-02T15:01:43.370Z,91.84
2023-01-02T15:04:22.441Z,91.63
2023-01-02T15:07:01.207Z,92.09
2023-01-02T15:09:37.958Z,92.21
2023-01-02T15:12:43.266Z,92.26
2023-01-02T15:15:13.946Z,92.31
2023-01-02T15:17:43.035Z,91.79
2023-01-02T15:20:19.843Z,91.79
2023-01-02T15:22:49.219Z,91.09
2023-01-02T15:25:36.971Z,91.13
2023-01-02T15:28:07.614Z,91.26
2023-01-02T15:30:39.982Z,91.51
2023-01-02T15:33:27.550Z,92.22
2023-01-02T15:36:00.263Z,93.12
2023-01-02T15:38:29.056Z,93.08
2023-01-02T15:40:58.069Z,93.54
2023-01-02T15:43:49.170Z,93.32
2023-01-02T15:46:18.176Z,93.20
2023-01-02T15:48:48.050Z,92.85
2023-01-02T15:51:18.760Z,92.24
2023-01-02T15:53:49.992Z,92.10
2023-01-02T15:56:34.009Z,92.57
2023-01-02T15:59:05.116Z,92.70
2023-01-02T16:01:33.713Z,92.67
2023-01-02T16:04:06.004Z,91.81
2023-01-02T16:06:36.848Z,91.94
2023-01-02T16:09:06.799Z,91.15
2023-01-02T16:11:45.786Z,90.93
2023-01-02T16:14:21.996Z,90.68
2023-01-02T16:16:57.114Z,90.15
2023-01-02T16:19:33.048Z,89.94
2023-01-02T16:22:07.752Z,90.34
2023-01-02T16:24:42.679Z,90.23
2023-01-02T16:27:15.096Z,90.33
2023-01-02T16:29:45.629Z,90.24
2023-01-02T16:32:29.545Z,90.00
2023-01-02T16:35:19.882Z,89.91
2023-01-02T16:37:57.486Z,89.81
2023-01-02T16:41:01.415Z,89.91
2023-01-02T16:43:35.370Z,90.30
2023-01-02T16:46:14.978Z,90.95
2023-01-02T16:48:44.912Z,91.50
2023-01-02T16:51:16.237Z,92.11
2023-01-02T16:53:45.999Z,91.62
2023-01-02T16:56:16.526Z,92.08
2023-01-02T16:58:44.935Z,92.13
2023-01-02T17:01:18.048Z,92.07
2023-01-02T17:03:46.729Z,92.49
2023-01-02T17:06:18.335Z,92.17
2023-01-02T17:08:46.907Z,91.50
2023-01-02T17:11:18.806Z,91.23
2023-01-02T17:13:47.349Z,91.25
2023-01-02T17:16:17.685Z,90.80
2023-01-02T17:18:46.548Z,90.50
2023-01-02T17:21:14.964Z,90.67
2023-01-02T17:23:43.546Z,90.64
2023-01-02T17:26:12.161Z,90.35
2023-01-02T17:28:40.537Z,90.49
2023-01-02T17:31:09.211Z,90.15
2023-01-02T17:33:39.059Z,90.28
2023-01-02T17:36:08.371Z,90.23
2023-01-02T17:38:36.708Z,89.98
2023-01-02T17:41:05.404Z,89.71
2023-01-02T17:43:34.089Z,90.45
2023-01-02T17:46:30.353Z,90.60
2023-01-02T17:48:56.632Z,90.27
2023-01-02T17:51:25.029Z,90.45
2023-01-02T17:53:55.870Z,89.93
2023-01-02T17:56:25.529Z,89.84
2023-01-02T17:58:53.957Z,89.93
2023-01-02T18:01:22.436Z,89.82
2023-01-02T18:03:51.135Z,89.47
2023-01-02T18:06:21.166Z,89.63
2023-01-02T18:08:50.417Z,89.49
2023-01-02T18:11:18.973Z,89.82
2023-01-02T18:13:50.562Z,90.05
2023-01-02T18:16:22.089Z,89.73
2023-01-02T18:18:53.356Z,89.69
2023-01-02T18:21:27.795Z,89.22
2023-01-02T18:24:00.526Z,88.44
2023-01-02T18:26:29.008Z,87.95
2023-01-02T18:29:09.343Z,87.96
2023-01-02T18:31:42.164Z,87.65
2023-01-02T18:34:46.414Z,87.42
2023-01-02T18:37:19.916Z,86.96
2023-01-02T18:39:48.886Z,86.18
2023-01-02T18:42:21.676Z,86.42
2023-01-02T18:44:50.641Z,86.22
2023-01-02T18:47:27.714Z,85.84
2023-01-02T18:50:02.999Z,85.37
2023-01-02T18:52:34.893Z,85.28
2023-01-02T18:55:09.290Z,84.84
2023-01-02T18:57:45.951Z,84.63
2023-01-02T19:00:25.790Z,84.33
2023-01-02T19:02:58.123Z,84.30
2023-01-02T19:05:29.550Z,84.14
2023-01-02T19:08:23.914Z,83.75
2023-01-02T19:10:55.853Z,83.44
2023-01-02T19:13:27.035Z,83.00
2023-01-02T19:15:58.794Z,82.45
2023-01-02T19:18:37.105Z,82.45
2023-01-02T19:21:17.509Z,82.93
2023-01-02T19:23:54.011Z,82.87
2023-01-02T19:26:32.550Z,82.36
2023-01-02T19:29:04.760Z,82.65
2023-01-02T19:31:42.726Z,82.55
2023-01-02T19:34:41.149Z,82.24
2023-01-02T19:37:40.478Z,82.01
2023-01-02T19:40:19.453Z,82.12
2023-01-02T19:42:49.561Z,81.79
2023-01-02T19:45:20.827Z,81.42
2023-01-02T19:47:50.581Z,80.98
2023-01-02T19:50:22.996Z,81.15
2023-01-02T19:52:51.699Z,80.97
2023-01-02T19:55:21.637Z,81.23
2023-01-02T19:57:50.320Z,81.20
2023-01-02T20:00:20.084Z,81.42
2023-01-02T20:02:50.445Z,81.30
2023-01-02T20:05:21.901Z,81.68
2023-01-02T20:07:52.853Z,81.04
2023-01-02T20:10:22.933Z,81.28
2023-01-02T20:12:51.357Z,81.54
2023-01-02T20:15:23.847Z,81.64
2023-01-02T20:17:53.395Z,82.05
2023-01-02T20:20:24.287Z,82.14
2023-01-02T20:22:52.880Z,82.10
2023-01-02T20:25:26.397Z,82.55
2023-01-02T20:27:56.860Z,81.93
2023-01-02T20:30:27.090Z,81.97
2023-01-02T20:32:56.066Z,81.19
2023-01-02T20:35:24.620Z,81.61
2023-01-02T20:37:53.115Z,81.53
2023-01-02T20:40:22.901Z,81.51
2023-01-02T20:42:51.479Z,81.20
2023-01-02T20:45:19.900Z,81.37
2023-01-02T20:47:48.402Z,81.73
2023-01-02T20:50:17.658Z,81.45
2023-01-02T20:52:46.576Z,81.02
2023-01-02T20:55:15.490Z,80.93
2023-01-02T20:57:47.242Z,80.88
2023-01-02T21:00:20.560Z,81.32
2023-01-02T21:02:48.838Z,81.18
2023-01-02T21:05:17.399Z,81.52
2023-01-02T21:07:46.119Z,81.00
2023-01-02T21:10:14.735Z,81.47
2023-01-02T21:13:02.050Z,81.38
2023-01-02T21:15:46.246Z,81.68
2023-01-02T21:18:18.503Z,81.73
2023-01-02T21:20:48.921Z,81.59
2023-01-02T21:23:18.920Z,81.12
2023-01-02T21:25:47.922Z,80.63
2023-01-02T21:28:19.126Z,80.51
2023-01-02T21:30:47.655Z,80.62
2023-01-02T21:33:19.211Z,80.94
2023-01-02T21:35:49.749Z,80.87
2023-01-02T21:38:20.171Z,81.13
2023-01-02T21:40:48.853Z,80.55
2023-01-02T21:43:18.592Z,80.27
2023-01-02T21:45:47.980Z,80.57
2023-01-02T21:48:16.375Z,80.53
2023-01-02T21:50:44.791Z,80.50
2023-01-02T21:53:16.913Z,81.12
2023-01-02T21:55:45.441Z,80.63
2023-01-02T21:58:14.735Z,80.98
2023-01-02T22:00:45.178Z,80.67
2023-01-02T22:03:14.108Z,80.76
2023-01-02T22:05:42.535Z,80.71
2023-01-02T22:08:10.887Z,81.11
2023-01-02T22:10:39.663Z,81.06
2023-01-02T22:13:08.006Z,80.96
2023-01-02T22:15:36.621Z,80.62
2023-01-02T22:18:06.799Z,80.82
2023-01-02T22:20:35.118Z,81.13
2023-01-02T22:23:03.439Z,81.71
2023-01-02T22:25:32.576Z,81.32
2023-01-02T22:28:01.169Z,81.66
2023-01-02T22:30:34.412Z,81.50
2023-01-02T22:33:05.593Z,81.82
2023-01-02T22:35:34.204Z,81.78
2023-01-02T22:38:02.604Z,81.68
2023-01-02T22:40:31.009Z,81.51
2023-01-02T22:43:02.027Z,81.58
2023-01-02T22:45:42.079Z,81.94
2023-01-02T22:48:20.797Z,81.35
2023-01-02T22:50:52.235Z,81.46
2023-01-02T22:53:24.415Z,80.82
2023-01-02T22:55:53.063Z,80.08
2023-01-02T22:58:23.159Z,80.08
2023-01-02T23:00:58.868Z,80.69
2023-01-02T23:03:31.309Z,81.34
2023-01-02T23:05:59.914Z,81.72
2023-01-02T23:08:28.440Z,81.58
2023-01-02T23:10:56.897Z,81.54
2023-01-02T23:13:25.232Z,81.82
2023-01-02T23:16:11.607Z,81.64
2023-01-02T23:18:58.959Z,81.90
2023-01-02T23:21:28.854Z,81.73
2023-01-02T23:23:57.359Z,81.56
2023-01-02T23:26:29.706Z,81.67
2023-01-02T23:29:07.423Z,82.02
2023-01-02T23:31:37.553Z,81.70
2023-01-02T23:34:07.662Z,81.52
2023-01-02T23:36:36.585Z,82.15
2023-01-02T23:39:06.175Z,82.41
2023-01-02T23:41:35.653Z,82.15
2023-01-02T23:44:04.218Z,82.88
2023-01-02T23:46:32.508Z,82.71
2023-01-02T23:49:01.177Z,82.61
2023-01-02T23:51:31.897Z,82.12
2023-01-02T23:54:00.870Z,82.26
2023-01-02T23:56:31.597Z,82.08
2023-01-02T23:59:01.870Z,82.80
